KMWC/MWC METAR and TAF weather

Enter ICAO airport designator
Station Type Date Time Source
KMWC METAR 2022/07/01 00:45 UTC NOAA

KMWC 010045Z 21013G17KT 10SM SCT070 29/11 A2988


Station Type Date Time Source
KMWC Decoded METAR 2022/07/01 00:45 UTC NOAA

Milwaukee / Timmerman, WI, United States (KMWC) 43-07N 088-02W
Jun 30, 2022 - 08:45 PM EDT / 2022.07.01 0045 UTC
Wind: from the SSW (210 degrees) at 15 MPH (13 KT) gusting to 20 MPH (17 KT):0
Visibility: 10 mile(s):0
Sky conditions: partly cloudy
Temperature: 84 F (29 C)
Dew Point: 51 F (11 C)
Relative Humidity: 32%
Pressure (altimeter): 29.88 in. Hg (1011 hPa)
ob: KMWC 010045Z 21013G17KT 10SM SCT070 29/11 A2988
cycle: 1

Station Type Date Time Source
KMWC TAF UTC NOAA

Error!

Example: see airport list